Aviation Digital Data Service (ADDS)

Output produced by METARs form (0258 UTC 16 September 2014)
found at http://aviationweather.gov/adds/metars/
 
KSSI 152341Z 1600/1624 14009KT P6SM SCT050 BKN120 
     TEMPO 1600/1602 5SM -SHRA BKN025 
     FM160300 24005KT P6SM FEW020 SCT100 BKN250 
     FM161800 20008KT P6SM VCTS SCT030CB BKN150